createdAt,value
2022-09-24T00:01:55.270Z,100.00
2022-09-24T00:04:27.447Z,100.00
2022-09-24T00:06:55.305Z,100.00
2022-09-24T00:09:23.777Z,100.00
2022-09-24T00:11:54.915Z,100.00
2022-09-24T00:14:23.318Z,100.00
2022-09-24T00:16:51.686Z,100.00
2022-09-24T00:19:19.851Z,100.00
2022-09-24T00:21:47.616Z,100.00
2022-09-24T00:24:35.675Z,100.00
2022-09-24T00:27:05.869Z,100.00
2022-09-24T00:29:35.825Z,100.00
2022-09-24T00:32:05.395Z,100.00
2022-09-24T00:34:33.816Z,100.00
2022-09-24T00:37:01.557Z,100.00
2022-09-24T00:39:29.810Z,100.00
2022-09-24T00:41:57.583Z,100.00
2022-09-24T00:44:54.704Z,100.00
2022-09-24T00:47:31.719Z,100.00
2022-09-24T00:50:16.723Z,100.00
2022-09-24T00:52:56.648Z,100.00
2022-09-24T00:55:26.417Z,100.00
2022-09-24T00:58:01.785Z,100.00
2022-09-24T01:00:31.640Z,100.00
2022-09-24T01:03:13.320Z,100.00
2022-09-24T01:05:41.700Z,100.00
2022-09-24T01:08:16.391Z,100.00
2022-09-24T01:11:24.038Z,100.00
2022-09-24T01:14:11.541Z,100.00
2022-09-24T01:17:08.590Z,100.00
2022-09-24T01:19:55.113Z,100.00
2022-09-24T01:22:27.237Z,100.00
2022-09-24T01:25:02.109Z,100.00
2022-09-24T01:27:52.865Z,100.00
2022-09-24T01:30:20.745Z,100.00
2022-09-24T01:32:53.887Z,100.00
2022-09-24T01:35:27.518Z,100.00
2022-09-24T01:38:00.840Z,100.00
2022-09-24T01:40:31.651Z,100.00
2022-09-24T01:43:03.112Z,100.00
2022-09-24T01:45:33.172Z,100.00
2022-09-24T01:48:01.710Z,100.00
2022-09-24T01:50:36.346Z,100.00
2022-09-24T01:53:30.365Z,100.00
2022-09-24T01:56:07.600Z,100.00
2022-09-24T01:58:46.267Z,100.00
2022-09-24T02:01:20.064Z,100.00
2022-09-24T02:03:57.041Z,100.00
2022-09-24T02:06:33.388Z,100.00
2022-09-24T02:09:02.169Z,100.00
2022-09-24T02:11:33.913Z,100.00
2022-09-24T02:14:15.029Z,100.00
2022-09-24T02:16:52.091Z,100.00
2022-09-24T02:19:27.339Z,100.00
2022-09-24T02:21:55.075Z,100.00
2022-09-24T02:24:45.823Z,100.00
2022-09-24T02:27:13.955Z,100.00
2022-09-24T02:29:44.644Z,100.00
2022-09-24T02:32:18.991Z,100.00
2022-09-24T02:34:52.811Z,100.00
2022-09-24T02:37:24.244Z,100.00
2022-09-24T02:39:52.729Z,100.00
2022-09-24T02:42:22.659Z,100.00
2022-09-24T02:44:52.347Z,100.00
2022-09-24T02:47:19.945Z,100.00
2022-09-24T02:49:48.192Z,100.00
2022-09-24T02:52:16.770Z,100.00
2022-09-24T02:54:44.854Z,100.00
2022-09-24T02:57:14.397Z,100.00
2022-09-24T02:59:43.685Z,100.00
2022-09-24T03:02:12.504Z,100.00
2022-09-24T03:04:41.446Z,100.00
2022-09-24T03:07:11.138Z,100.00
2022-09-24T03:09:40.913Z,100.00
2022-09-24T03:12:10.636Z,100.00
2022-09-24T03:14:38.945Z,100.00
2022-09-24T03:17:06.868Z,100.00
2022-09-24T03:19:35.901Z,100.00
2022-09-24T03:22:03.661Z,100.00
2022-09-24T03:24:31.828Z,100.00
2022-09-24T03:27:00.337Z,100.00
2022-09-24T03:29:48.261Z,100.00
2022-09-24T03:32:16.110Z,100.00
2022-09-24T03:34:44.514Z,99.93
2022-09-24T03:37:12.162Z,99.56
2022-09-24T03:39:40.329Z,99.92
2022-09-24T03:42:09.230Z,99.13
2022-09-24T03:44:37.208Z,98.99
2022-09-24T03:47:05.380Z,98.94
2022-09-24T03:49:33.054Z,98.06
2022-09-24T03:52:00.606Z,98.73
2022-09-24T03:54:28.355Z,99.59
2022-09-24T03:56:56.414Z,100.00
2022-09-24T03:59:24.406Z,100.00
2022-09-24T04:01:52.229Z,100.00
2022-09-24T04:04:20.533Z,100.00
2022-09-24T04:06:48.207Z,100.00
2022-09-24T04:09:16.269Z,100.00
2022-09-24T04:11:44.539Z,100.00
2022-09-24T04:14:12.064Z,100.00
2022-09-24T04:16:40.488Z,100.00
2022-09-24T04:19:08.142Z,100.00
2022-09-24T04:21:35.483Z,100.00
2022-09-24T04:24:03.352Z,100.00
2022-09-24T04:26:32.220Z,100.00
2022-09-24T04:28:59.915Z,100.00
2022-09-24T04:31:28.564Z,100.00
2022-09-24T04:33:56.120Z,100.00
2022-09-24T04:36:24.536Z,100.00
2022-09-24T04:38:52.188Z,100.00
2022-09-24T04:41:20.257Z,100.00
2022-09-24T04:43:48.130Z,100.00
2022-09-24T04:46:17.753Z,100.00
2022-09-24T04:48:45.906Z,100.00
2022-09-24T04:51:13.780Z,100.00
2022-09-24T04:53:41.168Z,100.00
2022-09-24T04:56:11.860Z,100.00
2022-09-24T04:58:39.526Z,100.00
2022-09-24T05:01:07.491Z,100.00
2022-09-24T05:03:35.252Z,100.00
2022-09-24T05:06:03.314Z,100.00
2022-09-24T05:08:30.576Z,100.00
2022-09-24T05:10:57.927Z,99.82
2022-09-24T05:13:25.182Z,99.97
2022-09-24T05:15:52.827Z,99.62
2022-09-24T05:18:20.403Z,99.62
2022-09-24T05:20:47.649Z,99.61
2022-09-24T05:23:14.902Z,99.52
2022-09-24T05:26:01.207Z,99.12
2022-09-24T05:28:28.562Z,99.61
2022-09-24T05:30:59.965Z,100.00
2022-09-24T05:33:27.462Z,100.00
2022-09-24T05:35:55.746Z,100.00
2022-09-24T05:38:23.499Z,100.00
2022-09-24T05:40:51.452Z,100.00
2022-09-24T05:43:19.654Z,99.60
2022-09-24T05:45:49.765Z,98.96
2022-09-24T05:48:17.305Z,98.64
2022-09-24T05:50:44.673Z,98.24
2022-09-24T05:53:12.651Z,97.77
2022-09-24T05:55:39.901Z,97.29
2022-09-24T05:58:09.945Z,97.57
2022-09-24T06:00:37.582Z,97.27
2022-09-24T06:03:10.488Z,96.18
2022-09-24T06:05:37.710Z,95.57
2022-09-24T06:08:05.777Z,95.34
2022-09-24T06:10:33.242Z,94.52
2022-09-24T06:13:01.250Z,90.71
2022-09-24T06:15:28.963Z,89.37
2022-09-24T06:17:59.814Z,88.67
2022-09-24T06:20:34.232Z,87.12
2022-09-24T06:23:11.459Z,89.15
2022-09-24T06:25:40.814Z,82.97
2022-09-24T06:28:08.584Z,85.59
2022-09-24T06:30:40.992Z,78.96
2022-09-24T06:33:14.281Z,78.68
2022-09-24T06:35:44.470Z,76.16
2022-09-24T06:38:14.795Z,77.11
2022-09-24T06:40:44.670Z,74.67
2022-09-24T06:43:13.065Z,74.68
2022-09-24T06:45:42.587Z,74.32
2022-09-24T06:48:14.122Z,71.08
2022-09-24T06:50:45.128Z,69.45
2022-09-24T06:53:12.661Z,71.85
2022-09-24T06:55:40.717Z,69.14
2022-09-24T06:58:14.966Z,68.94
2022-09-24T07:01:01.939Z,67.10
2022-09-24T07:03:32.389Z,66.79
2022-09-24T07:06:02.503Z,64.77
2022-09-24T07:08:30.116Z,61.41
2022-09-24T07:10:57.560Z,62.97
2022-09-24T07:13:24.751Z,64.03
2022-09-24T07:15:52.522Z,63.93
2022-09-24T07:18:28.785Z,60.85
2022-09-24T07:20:56.744Z,61.77
2022-09-24T07:23:24.308Z,60.19
2022-09-24T07:25:56.707Z,61.99
2022-09-24T07:28:24.031Z,63.25
2022-09-24T07:30:59.252Z,62.66
2022-09-24T07:33:26.699Z,62.41
2022-09-24T07:35:54.412Z,62.65
2022-09-24T07:38:22.014Z,62.95
2022-09-24T07:40:49.507Z,60.82
2022-09-24T07:43:16.657Z,60.89
2022-09-24T07:45:44.716Z,61.23
2022-09-24T07:48:12.488Z,61.25
2022-09-24T07:50:42.201Z,61.81
2022-09-24T07:53:14.796Z,60.63
2022-09-24T07:55:42.129Z,59.35
2022-09-24T07:58:13.273Z,59.21
2022-09-24T08:00:41.209Z,59.27
2022-09-24T08:03:08.510Z,58.64
2022-09-24T08:05:36.053Z,57.56
2022-09-24T08:08:03.272Z,56.44
2022-09-24T08:10:30.764Z,55.37
2022-09-24T08:13:01.969Z,53.85
2022-09-24T08:15:29.463Z,52.40
2022-09-24T08:18:03.783Z,51.75
2022-09-24T08:20:35.948Z,49.54
2022-09-24T08:23:05.644Z,48.92
2022-09-24T08:25:32.753Z,49.01
2022-09-24T08:28:04.128Z,49.20
2022-09-24T08:30:35.773Z,46.55
2022-09-24T08:33:06.807Z,48.01
2022-09-24T08:35:34.848Z,48.13
2022-09-24T08:38:03.142Z,47.21
2022-09-24T08:40:36.244Z,47.00
2022-09-24T08:43:18.281Z,46.13
2022-09-24T08:46:15.911Z,46.23
2022-09-24T08:48:48.840Z,47.39
2022-09-24T08:51:19.266Z,46.47
2022-09-24T08:54:07.356Z,46.35
2022-09-24T08:56:38.234Z,44.46
2022-09-24T08:59:14.091Z,44.00
2022-09-24T09:02:07.586Z,43.81
2022-09-24T09:04:57.815Z,42.70
2022-09-24T09:07:47.110Z,41.56
2022-09-24T09:10:16.174Z,42.47
2022-09-24T09:12:53.442Z,42.28
2022-09-24T09:15:26.251Z,41.16
2022-09-24T09:18:01.109Z,40.10
2022-09-24T09:20:33.379Z,40.31
2022-09-24T09:23:13.224Z,44.15
2022-09-24T09:25:46.938Z,45.19
2022-09-24T09:28:16.464Z,46.17
2022-09-24T09:30:52.872Z,46.46
2022-09-24T09:33:34.805Z,46.57
2022-09-24T09:36:32.775Z,47.68
2022-09-24T09:39:05.771Z,47.22
2022-09-24T09:41:52.883Z,48.19
2022-09-24T09:44:25.761Z,46.29
2022-09-24T09:47:06.640Z,46.84
2022-09-24T09:49:38.183Z,46.38
2022-09-24T09:52:14.423Z,46.94
2022-09-24T09:54:43.029Z,48.37
2022-09-24T09:57:17.755Z,50.45
2022-09-24T09:59:48.457Z,50.54
2022-09-24T10:02:37.101Z,51.32
2022-09-24T10:05:06.553Z,51.61
2022-09-24T10:07:44.654Z,51.95
2022-09-24T10:10:24.017Z,51.33
2022-09-24T10:13:13.054Z,53.22
2022-09-24T10:15:53.436Z,54.41
2022-09-24T10:18:38.888Z,54.41
2022-09-24T10:21:11.637Z,54.63
2022-09-24T10:23:44.249Z,53.59
2022-09-24T10:26:11.426Z,52.60
2022-09-24T10:29:08.343Z,53.59
2022-09-24T10:31:39.399Z,52.45
2022-09-24T10:34:24.355Z,51.06
2022-09-24T10:37:08.629Z,50.55
2022-09-24T10:39:38.318Z,50.12
2022-09-24T10:42:07.515Z,49.64
2022-09-24T10:44:38.038Z,50.22
2022-09-24T10:47:22.512Z,49.15
2022-09-24T10:50:21.747Z,47.63
2022-09-24T10:53:08.381Z,46.06
2022-09-24T10:55:56.955Z,46.48
2022-09-24T10:58:54.806Z,46.06
2022-09-24T11:01:22.044Z,45.82
2022-09-24T11:03:53.018Z,45.61
2022-09-24T11:06:35.215Z,46.04
2022-09-24T11:09:30.223Z,46.01
2022-09-24T11:12:19.280Z,45.89
2022-09-24T11:15:03.780Z,46.88
2022-09-24T11:18:04.412Z,48.05
2022-09-24T11:20:38.995Z,47.93
2022-09-24T11:23:07.145Z,47.33
2022-09-24T11:25:53.982Z,47.21
2022-09-24T11:28:21.128Z,45.98
2022-09-24T11:31:19.413Z,43.60
2022-09-24T11:33:56.139Z,43.23
2022-09-24T11:36:50.290Z,42.51
2022-09-24T11:39:26.731Z,42.94
2022-09-24T11:42:16.100Z,41.93
2022-09-24T11:45:10.901Z,41.83
2022-09-24T11:48:16.352Z,41.17
2022-09-24T11:51:20.973Z,41.29
2022-09-24T11:54:12.427Z,40.45
2022-09-24T11:56:51.331Z,40.11
2022-09-24T11:59:42.432Z,40.93
2022-09-24T12:02:20.439Z,41.65
2022-09-24T12:05:14.851Z,43.25
2022-09-24T12:08:00.951Z,42.96
2022-09-24T12:10:50.310Z,43.29
2022-09-24T12:13:27.619Z,41.49
2022-09-24T12:16:00.750Z,40.74
2022-09-24T12:18:45.372Z,39.10
2022-09-24T12:21:18.412Z,38.21
2022-09-24T12:23:49.337Z,38.78
2022-09-24T12:26:19.535Z,39.59
2022-09-24T12:29:35.471Z,40.60
2022-09-24T12:32:33.647Z,40.90
2022-09-24T12:35:27.520Z,41.43
2022-09-24T12:38:05.296Z,43.24
2022-09-24T12:40:41.566Z,44.66
2022-09-24T12:43:29.315Z,44.25
2022-09-24T12:46:02.431Z,43.61
2022-09-24T12:48:36.310Z,44.14
2022-09-24T12:51:09.293Z,44.29
2022-09-24T12:53:39.914Z,44.78
2022-09-24T12:56:09.436Z,42.81
2022-09-24T12:58:41.208Z,42.64
2022-09-24T13:01:39.581Z,42.76
2022-09-24T13:04:16.348Z,43.37
2022-09-24T13:06:47.776Z,44.14
2022-09-24T13:09:34.094Z,43.37
2022-09-24T13:12:23.873Z,40.77
2022-09-24T13:14:56.582Z,38.89
2022-09-24T13:17:24.534Z,37.46
2022-09-24T13:19:58.734Z,36.30
2022-09-24T13:22:31.920Z,37.38
2022-09-24T13:25:26.518Z,35.91
2022-09-24T13:28:02.898Z,34.89
2022-09-24T13:30:32.613Z,34.21
2022-09-24T13:33:09.578Z,34.50
2022-09-24T13:35:47.066Z,35.26
2022-09-24T13:38:26.607Z,35.12
2022-09-24T13:41:01.437Z,36.39
2022-09-24T13:44:04.017Z,37.30
2022-09-24T13:46:34.694Z,37.37
2022-09-24T13:49:08.655Z,38.39
2022-09-24T13:51:38.573Z,38.89
2022-09-24T13:54:17.397Z,38.64
2022-09-24T13:56:59.230Z,40.10
2022-09-24T13:59:27.543Z,41.94
2022-09-24T14:01:55.406Z,43.53
2022-09-24T14:04:23.811Z,42.46
2022-09-24T14:06:57.109Z,40.73
2022-09-24T14:09:34.090Z,40.19
2022-09-24T14:12:22.183Z,40.20
2022-09-24T14:14:57.893Z,40.12
2022-09-24T14:17:26.137Z,40.61
2022-09-24T14:19:56.584Z,40.15
2022-09-24T14:22:30.177Z,39.73
2022-09-24T14:25:03.076Z,39.90
2022-09-24T14:27:36.255Z,39.56
2022-09-24T14:30:17.025Z,40.54
2022-09-24T14:32:44.402Z,41.37
2022-09-24T14:35:31.928Z,42.24
2022-09-24T14:38:10.707Z,44.19
2022-09-24T14:40:48.209Z,43.84
2022-09-24T14:43:22.861Z,46.20
2022-09-24T14:45:55.218Z,46.31
2022-09-24T14:48:33.799Z,47.06
2022-09-24T14:51:02.010Z,47.12
2022-09-24T14:53:37.057Z,46.22
2022-09-24T14:56:32.259Z,44.07
2022-09-24T14:59:00.355Z,42.85
2022-09-24T15:01:34.123Z,42.20
2022-09-24T15:04:15.553Z,43.13
2022-09-24T15:06:47.559Z,43.28
2022-09-24T15:09:29.369Z,43.39
2022-09-24T15:12:30.413Z,43.31
2022-09-24T15:15:26.442Z,44.89
2022-09-24T15:17:54.098Z,46.37
2022-09-24T15:20:21.972Z,47.36
2022-09-24T15:22:49.733Z,49.10
2022-09-24T15:25:17.286Z,50.88
2022-09-24T15:27:45.201Z,52.66
2022-09-24T15:30:19.336Z,52.25
2022-09-24T15:32:49.641Z,54.64
2022-09-24T15:35:17.048Z,55.86
2022-09-24T15:37:44.918Z,56.87
2022-09-24T15:40:36.377Z,57.91
2022-09-24T15:43:08.913Z,60.13
2022-09-24T15:45:36.474Z,60.56
2022-09-24T15:48:04.044Z,62.09
2022-09-24T15:50:31.241Z,63.14
2022-09-24T15:53:00.589Z,63.74
2022-09-24T15:55:28.756Z,64.62
2022-09-24T15:57:56.001Z,65.44
2022-09-24T16:00:24.799Z,64.99
2022-09-24T16:02:56.711Z,66.10
2022-09-24T16:05:24.831Z,65.55
2022-09-24T16:07:52.088Z,65.63
2022-09-24T16:10:20.155Z,66.86
2022-09-24T16:12:47.814Z,66.12
2022-09-24T16:15:15.984Z,67.99
2022-09-24T16:17:43.955Z,68.00
2022-09-24T16:20:11.210Z,68.22
2022-09-24T16:22:38.466Z,68.18
2022-09-24T16:25:06.434Z,68.42
2022-09-24T16:27:34.911Z,70.56
2022-09-24T16:30:03.593Z,70.69
2022-09-24T16:32:31.459Z,69.99
2022-09-24T16:34:59.430Z,69.95
2022-09-24T16:37:28.335Z,71.64
2022-09-24T16:39:55.674Z,74.09
2022-09-24T16:42:25.793Z,73.96
2022-09-24T16:44:52.734Z,74.17
2022-09-24T16:47:20.297Z,73.98
2022-09-24T16:49:47.854Z,73.49
2022-09-24T16:52:15.107Z,75.32
2022-09-24T16:54:42.357Z,74.45
2022-09-24T16:57:09.508Z,75.07
2022-09-24T16:59:36.966Z,77.74
2022-09-24T17:02:04.296Z,77.57
2022-09-24T17:04:34.223Z,78.44
2022-09-24T17:07:01.692Z,79.05
2022-09-24T17:09:47.885Z,79.67
2022-09-24T17:12:15.300Z,80.21
2022-09-24T17:14:42.605Z,79.42
2022-09-24T17:17:10.995Z,79.75
2022-09-24T17:19:38.226Z,78.53
2022-09-24T17:22:10.706Z,79.86
2022-09-24T17:24:39.590Z,82.77
2022-09-24T17:27:07.664Z,80.56
2022-09-24T17:29:34.915Z,77.30
2022-09-24T17:32:02.962Z,78.29
2022-09-24T17:34:30.147Z,80.83
2022-09-24T17:36:59.305Z,81.58
2022-09-24T17:39:27.605Z,80.81
2022-09-24T17:41:55.475Z,81.37
2022-09-24T17:44:22.620Z,80.95
2022-09-24T17:46:49.719Z,80.10
2022-09-24T17:49:17.125Z,80.02
2022-09-24T17:51:47.148Z,80.28
2022-09-24T17:54:15.522Z,79.53
2022-09-24T17:56:42.641Z,78.79
2022-09-24T17:59:11.737Z,79.91
2022-09-24T18:01:41.347Z,78.76
2022-09-24T18:04:15.487Z,80.00
2022-09-24T18:06:44.475Z,79.39
2022-09-24T18:09:13.883Z,80.48
2022-09-24T18:11:46.504Z,78.07
2022-09-24T18:14:19.798Z,80.40
2022-09-24T18:16:48.981Z,82.30
2022-09-24T18:19:17.512Z,82.83
2022-09-24T18:21:46.125Z,82.92
2022-09-24T18:24:14.080Z,82.83
2022-09-24T18:26:41.232Z,82.83
2022-09-24T18:29:17.186Z,81.25
2022-09-24T18:31:45.127Z,82.38
2022-09-24T18:34:15.273Z,80.50
2022-09-24T18:36:44.173Z,80.02
2022-09-24T18:39:14.753Z,79.97
2022-09-24T18:41:43.910Z,80.26
2022-09-24T18:44:12.659Z,80.75
2022-09-24T18:46:45.469Z,82.25
2022-09-24T18:49:14.068Z,82.32
2022-09-24T18:51:42.331Z,81.43
2022-09-24T18:54:14.487Z,81.06
2022-09-24T18:56:43.074Z,79.85
2022-09-24T18:59:16.715Z,79.71
2022-09-24T19:01:46.494Z,80.20
2022-09-24T19:04:14.760Z,81.27
2022-09-24T19:06:43.707Z,83.76
2022-09-24T19:09:13.259Z,83.30
2022-09-24T19:11:41.430Z,81.39
2022-09-24T19:14:11.099Z,80.94
2022-09-24T19:16:38.804Z,81.73
2022-09-24T19:19:06.671Z,82.01
2022-09-24T19:21:33.830Z,82.00
2022-09-24T19:24:01.483Z,81.53
2022-09-24T19:26:31.533Z,81.63
2022-09-24T19:28:58.960Z,82.80
2022-09-24T19:31:31.998Z,82.24
2022-09-24T19:34:04.108Z,83.17
2022-09-24T19:36:37.398Z,83.13
2022-09-24T19:39:10.266Z,82.37
2022-09-24T19:41:37.955Z,83.07
2022-09-24T19:44:08.781Z,84.11
2022-09-24T19:46:38.035Z,83.73
2022-09-24T19:49:06.663Z,83.76
2022-09-24T19:51:35.144Z,83.55
2022-09-24T19:54:08.540Z,82.09
2022-09-24T19:56:37.024Z,84.38
2022-09-24T19:59:05.630Z,83.80
2022-09-24T20:01:33.662Z,83.52
2022-09-24T20:04:05.158Z,83.42
2022-09-24T20:06:34.732Z,85.57
2022-09-24T20:09:02.290Z,86.32
2022-09-24T20:11:31.883Z,87.23
2022-09-24T20:13:59.990Z,85.40
2022-09-24T20:16:32.244Z,84.17
2022-09-24T20:19:01.243Z,84.08
2022-09-24T20:21:33.965Z,86.54
2022-09-24T20:24:03.212Z,85.69
2022-09-24T20:26:49.203Z,85.97
2022-09-24T20:29:19.424Z,86.12
2022-09-24T20:31:51.445Z,84.78
2022-09-24T20:34:20.849Z,84.72
2022-09-24T20:36:48.660Z,86.54
2022-09-24T20:39:16.112Z,86.70
2022-09-24T20:41:43.795Z,85.98
2022-09-24T20:44:11.192Z,86.09
2022-09-24T20:46:38.987Z,86.39
2022-09-24T20:49:06.355Z,86.29
2022-09-24T20:51:33.742Z,86.51
2022-09-24T20:54:01.474Z,86.25
2022-09-24T20:56:30.152Z,86.20
2022-09-24T20:58:58.435Z,86.09
2022-09-24T21:01:25.749Z,87.51
2022-09-24T21:03:53.577Z,86.86
2022-09-24T21:06:24.488Z,87.11
2022-09-24T21:08:52.562Z,86.59
2022-09-24T21:11:22.439Z,85.87
2022-09-24T21:13:52.187Z,86.82
2022-09-24T21:16:22.090Z,88.15
2022-09-24T21:18:51.840Z,88.04
2022-09-24T21:21:26.041Z,86.82
2022-09-24T21:23:54.603Z,86.78
2022-09-24T21:26:33.227Z,85.59
2022-09-24T21:29:03.133Z,86.37
2022-09-24T21:31:32.959Z,87.90
2022-09-24T21:34:00.920Z,87.62
2022-09-24T21:36:31.253Z,89.13
2022-09-24T21:38:59.726Z,89.75
2022-09-24T21:41:30.724Z,91.93
2022-09-24T21:43:58.733Z,91.09
2022-09-24T21:46:28.012Z,88.08
2022-09-24T21:48:55.804Z,86.60
2022-09-24T21:51:25.212Z,88.47
2022-09-24T21:54:00.069Z,90.01
2022-09-24T21:56:29.230Z,86.91
2022-09-24T21:58:57.303Z,85.05
2022-09-24T22:01:28.327Z,84.11
2022-09-24T22:04:00.778Z,84.30
2022-09-24T22:06:29.806Z,87.02
2022-09-24T22:09:02.178Z,86.06
2022-09-24T22:11:30.974Z,84.59
2022-09-24T22:14:02.394Z,84.29
2022-09-24T22:16:35.526Z,84.09
2022-09-24T22:19:05.321Z,84.62
2022-09-24T22:21:33.908Z,86.75
2022-09-24T22:24:02.780Z,90.23
2022-09-24T22:26:30.560Z,92.19
2022-09-24T22:28:58.928Z,89.24
2022-09-24T22:31:27.524Z,89.14
2022-09-24T22:34:13.802Z,88.59
2022-09-24T22:36:41.287Z,87.59
2022-09-24T22:39:09.387Z,91.84
2022-09-24T22:41:39.621Z,92.57
2022-09-24T22:44:07.250Z,93.18
2022-09-24T22:46:37.829Z,92.73
2022-09-24T22:49:07.777Z,91.56
2022-09-24T22:51:37.995Z,92.15
2022-09-24T22:54:06.540Z,93.78
2022-09-24T22:56:35.573Z,94.25
2022-09-24T22:59:04.264Z,93.75
2022-09-24T23:01:39.185Z,92.78
2022-09-24T23:04:07.414Z,93.85
2022-09-24T23:06:35.256Z,94.06
2022-09-24T23:09:03.816Z,94.31
2022-09-24T23:11:34.054Z,94.55
2022-09-24T23:14:03.720Z,94.09
2022-09-24T23:16:37.371Z,92.15
2022-09-24T23:19:12.080Z,93.88
2022-09-24T23:21:40.149Z,95.48
2022-09-24T23:24:14.882Z,95.72
2022-09-24T23:26:43.978Z,94.16
2022-09-24T23:29:12.649Z,91.09
2022-09-24T23:31:40.624Z,93.43
2022-09-24T23:34:12.403Z,94.48
2022-09-24T23:36:39.961Z,91.00
2022-09-24T23:39:08.721Z,89.26
2022-09-24T23:41:37.710Z,89.94
2022-09-24T23:44:07.061Z,90.20
2022-09-24T23:46:35.270Z,91.92
2022-09-24T23:49:03.264Z,94.60
2022-09-24T23:51:32.390Z,96.44
2022-09-24T23:54:00.730Z,96.88
2022-09-24T23:56:30.554Z,97.22
2022-09-24T23:58:59.651Z,96.90
